sensor_id;sensor_type;location;lat;lon;timestamp;P1;durP1;ratioP1;P2;durP2;ratioP2
23952;SDS011;12163;49.316;6.092;2023-05-10T00:01:25;8.27;;;6.03;;
23952;SDS011;12163;49.316;6.092;2023-05-10T00:03:52;8.43;;;5.43;;
23952;SDS011;12163;49.316;6.092;2023-05-10T00:06:18;7.75;;;5.63;;
23952;SDS011;12163;49.316;6.092;2023-05-10T00:08:45;9.82;;;5.47;;
23952;SDS011;12163;49.316;6.092;2023-05-10T00:11:11;8.35;;;5.65;;
23952;SDS011;12163;49.316;6.092;2023-05-10T00:13:38;7.68;;;5.63;;
23952;SDS011;12163;49.316;6.092;2023-05-10T00:16:05;10.93;;;6.85;;
23952;SDS011;12163;49.316;6.092;2023-05-10T00:18:31;8.85;;;5.47;;
23952;SDS011;12163;49.316;6.092;2023-05-10T00:20:58;10.48;;;5.88;;
23952;SDS011;12163;49.316;6.092;2023-05-10T00:23:24;12.32;;;5.55;;
23952;SDS011;12163;49.316;6.092;2023-05-10T00:25:51;10.02;;;5.82;;
23952;SDS011;12163;49.316;6.092;2023-05-10T00:28:17;11.93;;;5.78;;
23952;SDS011;12163;49.316;6.092;2023-05-10T00:30:44;11.35;;;5.90;;
23952;SDS011;12163;49.316;6.092;2023-05-10T00:33:11;7.50;;;6.03;;
23952;SDS011;12163;49.316;6.092;2023-05-10T00:35:37;11.02;;;6.40;;
23952;SDS011;12163;49.316;6.092;2023-05-10T00:38:04;11.25;;;6.35;;
23952;SDS011;12163;49.316;6.092;2023-05-10T00:40:30;8.88;;;6.20;;
23952;SDS011;12163;49.316;6.092;2023-05-10T00:42:57;8.77;;;7.03;;
23952;SDS011;12163;49.316;6.092;2023-05-10T00:45:25;11.35;;;6.28;;
23952;SDS011;12163;49.316;6.092;2023-05-10T00:47:52;9.32;;;6.90;;
23952;SDS011;12163;49.316;6.092;2023-05-10T00:50:21;10.05;;;6.60;;
23952;SDS011;12163;49.316;6.092;2023-05-10T00:52:49;8.10;;;6.63;;
23952;SDS011;12163;49.316;6.092;2023-05-10T00:55:16;11.15;;;7.00;;
23952;SDS011;12163;49.316;6.092;2023-05-10T00:57:44;10.93;;;7.43;;
23952;SDS011;12163;49.316;6.092;2023-05-10T01:00:10;8.80;;;7.00;;
23952;SDS011;12163;49.316;6.092;2023-05-10T01:02:39;9.38;;;7.00;;
23952;SDS011;12163;49.316;6.092;2023-05-10T01:05:06;7.68;;;6.47;;
23952;SDS011;12163;49.316;6.092;2023-05-10T01:07:33;11.60;;;6.82;;
23952;SDS011;12163;49.316;6.092;2023-05-10T01:10:00;8.65;;;7.00;;
23952;SDS011;12163;49.316;6.092;2023-05-10T01:12:26;10.02;;;6.10;;
23952;SDS011;12163;49.316;6.092;2023-05-10T01:14:53;10.73;;;6.55;;
23952;SDS011;12163;49.316;6.092;2023-05-10T01:17:21;10.20;;;6.60;;
23952;SDS011;12163;49.316;6.092;2023-05-10T01:19:48;10.32;;;6.95;;
23952;SDS011;12163;49.316;6.092;2023-05-10T01:22:28;7.72;;;6.93;;
23952;SDS011;12163;49.316;6.092;2023-05-10T01:31:18;6.68;;;5.80;;
23952;SDS011;12163;49.316;6.092;2023-05-10T01:34:07;6.55;;;4.88;;
23952;SDS011;12163;49.316;6.092;2023-05-10T01:36:40;4.80;;;3.95;;
23952;SDS011;12163;49.316;6.092;2023-05-10T01:39:16;5.22;;;3.80;;
23952;SDS011;12163;49.316;6.092;2023-05-10T01:44:33;4.63;;;3.03;;
23952;SDS011;12163;49.316;6.092;2023-05-10T01:47:14;3.80;;;2.85;;
23952;SDS011;12163;49.316;6.092;2023-05-10T01:49:45;7.07;;;2.97;;
23952;SDS011;12163;49.316;6.092;2023-05-10T01:52:18;3.63;;;2.75;;
23952;SDS011;12163;49.316;6.092;2023-05-10T01:54:50;3.00;;;2.17;;
23952;SDS011;12163;49.316;6.092;2023-05-10T01:57:21;4.70;;;2.40;;
23952;SDS011;12163;49.316;6.092;2023-05-10T01:59:52;3.83;;;2.60;;
23952;SDS011;12163;49.316;6.092;2023-05-10T02:02:20;4.38;;;2.38;;
23952;SDS011;12163;49.316;6.092;2023-05-10T02:04:49;6.85;;;3.03;;
23952;SDS011;12163;49.316;6.092;2023-05-10T02:07:16;5.88;;;2.80;;
23952;SDS011;12163;49.316;6.092;2023-05-10T02:09:44;3.38;;;2.60;;
23952;SDS011;12163;49.316;6.092;2023-05-10T02:12:15;2.67;;;1.90;;
23952;SDS011;12163;49.316;6.092;2023-05-10T02:14:42;3.33;;;1.70;;
23952;SDS011;12163;49.316;6.092;2023-05-10T02:17:10;2.92;;;1.67;;
23952;SDS011;12163;49.316;6.092;2023-05-10T02:19:38;3.22;;;1.40;;
23952;SDS011;12163;49.316;6.092;2023-05-10T02:22:07;3.05;;;1.33;;
23952;SDS011;12163;49.316;6.092;2023-05-10T02:24:35;1.52;;;1.30;;
23952;SDS011;12163;49.316;6.092;2023-05-10T02:27:03;5.97;;;1.55;;
23952;SDS011;12163;49.316;6.092;2023-05-10T02:29:31;1.70;;;1.15;;
23952;SDS011;12163;49.316;6.092;2023-05-10T02:31:58;1.67;;;1.10;;
23952;SDS011;12163;49.316;6.092;2023-05-10T02:34:26;3.90;;;1.23;;
23952;SDS011;12163;49.316;6.092;2023-05-10T02:36:53;2.22;;;1.25;;
23952;SDS011;12163;49.316;6.092;2023-05-10T02:39:22;2.15;;;1.30;;
23952;SDS011;12163;49.316;6.092;2023-05-10T02:41:50;3.30;;;1.38;;
23952;SDS011;12163;49.316;6.092;2023-05-10T02:44:18;4.13;;;1.15;;
23952;SDS011;12163;49.316;6.092;2023-05-10T02:46:46;1.63;;;1.00;;
23952;SDS011;12163;49.316;6.092;2023-05-10T02:49:13;3.47;;;1.00;;
23952;SDS011;12163;49.316;6.092;2023-05-10T02:51:51;5.63;;;1.02;;
23952;SDS011;12163;49.316;6.092;2023-05-10T02:54:27;3.28;;;0.88;;
23952;SDS011;12163;49.316;6.092;2023-05-10T02:56:58;3.10;;;1.13;;
23952;SDS011;12163;49.316;6.092;2023-05-10T02:59:29;3.20;;;1.27;;
23952;SDS011;12163;49.316;6.092;2023-05-10T03:01:55;3.95;;;1.00;;
23952;SDS011;12163;49.316;6.092;2023-05-10T03:04:22;1.33;;;1.10;;
23952;SDS011;12163;49.316;6.092;2023-05-10T03:06:49;2.28;;;1.20;;
23952;SDS011;12163;49.316;6.092;2023-05-10T03:09:16;4.72;;;1.33;;
23952;SDS011;12163;49.316;6.092;2023-05-10T03:11:46;1.52;;;1.20;;
23952;SDS011;12163;49.316;6.092;2023-05-10T03:14:53;1.95;;;1.17;;
23952;SDS011;12163;49.316;6.092;2023-05-10T03:20:06;3.58;;;1.33;;
23952;SDS011;12163;49.316;6.092;2023-05-10T03:22:37;2.50;;;1.30;;
23952;SDS011;12163;49.316;6.092;2023-05-10T03:25:10;3.50;;;1.48;;
23952;SDS011;12163;49.316;6.092;2023-05-10T03:27:39;4.72;;;1.40;;
23952;SDS011;12163;49.316;6.092;2023-05-10T03:30:08;3.38;;;1.60;;
23952;SDS011;12163;49.316;6.092;2023-05-10T03:32:38;2.20;;;1.40;;
23952;SDS011;12163;49.316;6.092;2023-05-10T03:35:08;3.50;;;1.83;;
23952;SDS011;12163;49.316;6.092;2023-05-10T03:37:36;4.40;;;1.90;;
23952;SDS011;12163;49.316;6.092;2023-05-10T03:40:03;1.95;;;1.70;;
23952;SDS011;12163;49.316;6.092;2023-05-10T03:42:30;2.92;;;1.80;;
23952;SDS011;12163;49.316;6.092;2023-05-10T03:44:57;6.22;;;1.90;;
23952;SDS011;12163;49.316;6.092;2023-05-10T03:47:23;3.22;;;2.10;;
23952;SDS011;12163;49.316;6.092;2023-05-10T03:49:50;2.65;;;2.05;;
23952;SDS011;12163;49.316;6.092;2023-05-10T03:52:17;3.35;;;1.80;;
23952;SDS011;12163;49.316;6.092;2023-05-10T03:54:44;4.53;;;2.20;;
23952;SDS011;12163;49.316;6.092;2023-05-10T03:57:10;6.25;;;2.08;;
23952;SDS011;12163;49.316;6.092;2023-05-10T03:59:37;5.38;;;1.80;;
23952;SDS011;12163;49.316;6.092;2023-05-10T04:02:03;3.97;;;2.22;;
23952;SDS011;12163;49.316;6.092;2023-05-10T04:04:30;4.63;;;2.17;;
23952;SDS011;12163;49.316;6.092;2023-05-10T04:06:57;3.38;;;1.80;;
23952;SDS011;12163;49.316;6.092;2023-05-10T04:09:23;3.13;;;1.75;;
23952;SDS011;12163;49.316;6.092;2023-05-10T04:11:50;3.35;;;2.00;;
23952;SDS011;12163;49.316;6.092;2023-05-10T04:14:17;2.17;;;1.52;;
23952;SDS011;12163;49.316;6.092;2023-05-10T04:16:43;1.90;;;1.75;;
23952;SDS011;12163;49.316;6.092;2023-05-10T04:19:11;3.22;;;2.00;;
23952;SDS011;12163;49.316;6.092;2023-05-10T04:21:37;3.28;;;1.63;;
23952;SDS011;12163;49.316;6.092;2023-05-10T04:24:04;4.32;;;1.80;;
23952;SDS011;12163;49.316;6.092;2023-05-10T04:26:31;2.92;;;2.05;;
23952;SDS011;12163;49.316;6.092;2023-05-10T04:28:57;2.42;;;1.77;;
23952;SDS011;12163;49.316;6.092;2023-05-10T04:31:24;2.88;;;1.80;;
23952;SDS011;12163;49.316;6.092;2023-05-10T04:33:51;4.32;;;2.40;;
23952;SDS011;12163;49.316;6.092;2023-05-10T04:36:17;4.05;;;2.15;;
23952;SDS011;12163;49.316;6.092;2023-05-10T04:38:44;2.80;;;2.03;;
23952;SDS011;12163;49.316;6.092;2023-05-10T04:41:10;2.85;;;1.95;;
23952;SDS011;12163;49.316;6.092;2023-05-10T04:43:37;5.45;;;2.13;;
23952;SDS011;12163;49.316;6.092;2023-05-10T04:46:04;2.28;;;1.98;;
23952;SDS011;12163;49.316;6.092;2023-05-10T04:48:32;4.13;;;2.13;;
23952;SDS011;12163;49.316;6.092;2023-05-10T04:50:59;4.22;;;1.63;;
23952;SDS011;12163;49.316;6.092;2023-05-10T04:53:25;1.98;;;1.48;;
23952;SDS011;12163;49.316;6.092;2023-05-10T04:55:52;2.75;;;1.40;;
23952;SDS011;12163;49.316;6.092;2023-05-10T04:58:19;1.90;;;1.60;;
23952;SDS011;12163;49.316;6.092;2023-05-10T05:00:45;6.15;;;1.70;;
23952;SDS011;12163;49.316;6.092;2023-05-10T05:03:12;2.85;;;1.45;;
23952;SDS011;12163;49.316;6.092;2023-05-10T05:05:38;3.97;;;1.50;;
23952;SDS011;12163;49.316;6.092;2023-05-10T05:08:05;2.28;;;1.33;;
23952;SDS011;12163;49.316;6.092;2023-05-10T05:10:32;2.72;;;1.35;;
23952;SDS011;12163;49.316;6.092;2023-05-10T05:12:58;1.85;;;1.65;;
23952;SDS011;12163;49.316;6.092;2023-05-10T05:15:25;1.73;;;1.42;;
23952;SDS011;12163;49.316;6.092;2023-05-10T05:17:52;2.17;;;1.58;;
23952;SDS011;12163;49.316;6.092;2023-05-10T05:20:18;2.15;;;1.65;;
23952;SDS011;12163;49.316;6.092;2023-05-10T05:22:45;2.83;;;1.67;;
23952;SDS011;12163;49.316;6.092;2023-05-10T05:25:12;2.83;;;1.15;;
23952;SDS011;12163;49.316;6.092;2023-05-10T05:27:38;4.30;;;1.30;;
23952;SDS011;12163;49.316;6.092;2023-05-10T05:30:05;5.57;;;1.67;;
23952;SDS011;12163;49.316;6.092;2023-05-10T05:32:33;2.85;;;1.50;;
23952;SDS011;12163;49.316;6.092;2023-05-10T05:35:00;5.90;;;1.50;;
23952;SDS011;12163;49.316;6.092;2023-05-10T05:37:27;2.17;;;1.52;;
23952;SDS011;12163;49.316;6.092;2023-05-10T05:39:53;2.08;;;1.50;;
23952;SDS011;12163;49.316;6.092;2023-05-10T05:42:21;4.15;;;1.30;;
23952;SDS011;12163;49.316;6.092;2023-05-10T05:44:47;3.17;;;1.55;;
23952;SDS011;12163;49.316;6.092;2023-05-10T05:47:14;2.13;;;1.40;;
23952;SDS011;12163;49.316;6.092;2023-05-10T05:49:41;1.63;;;1.30;;
23952;SDS011;12163;49.316;6.092;2023-05-10T05:52:07;2.70;;;1.40;;
23952;SDS011;12163;49.316;6.092;2023-05-10T05:54:34;2.08;;;1.15;;
23952;SDS011;12163;49.316;6.092;2023-05-10T05:57:01;1.77;;;1.23;;
23952;SDS011;12163;49.316;6.092;2023-05-10T05:59:27;3.60;;;1.60;;
23952;SDS011;12163;49.316;6.092;2023-05-10T06:01:54;7.40;;;1.40;;
23952;SDS011;12163;49.316;6.092;2023-05-10T06:04:21;1.80;;;1.40;;
23952;SDS011;12163;49.316;6.092;2023-05-10T06:06:48;9.02;;;1.50;;
23952;SDS011;12163;49.316;6.092;2023-05-10T06:09:14;3.15;;;1.63;;
23952;SDS011;12163;49.316;6.092;2023-05-10T06:11:42;1.88;;;1.40;;
23952;SDS011;12163;49.316;6.092;2023-05-10T06:14:09;5.97;;;1.48;;
23952;SDS011;12163;49.316;6.092;2023-05-10T06:16:35;3.30;;;1.38;;
23952;SDS011;12163;49.316;6.092;2023-05-10T06:19:02;4.15;;;1.52;;
23952;SDS011;12163;49.316;6.092;2023-05-10T06:21:29;5.30;;;1.80;;
23952;SDS011;12163;49.316;6.092;2023-05-10T06:23:56;4.03;;;1.33;;
23952;SDS011;12163;49.316;6.092;2023-05-10T06:26:23;2.72;;;1.48;;
23952;SDS011;12163;49.316;6.092;2023-05-10T06:28:49;8.55;;;1.80;;
23952;SDS011;12163;49.316;6.092;2023-05-10T06:31:16;5.18;;;1.65;;
23952;SDS011;12163;49.316;6.092;2023-05-10T06:33:42;3.30;;;1.65;;
23952;SDS011;12163;49.316;6.092;2023-05-10T06:36:09;3.28;;;1.55;;
23952;SDS011;12163;49.316;6.092;2023-05-10T06:38:36;2.00;;;1.52;;
23952;SDS011;12163;49.316;6.092;2023-05-10T06:41:03;3.25;;;1.52;;
23952;SDS011;12163;49.316;6.092;2023-05-10T06:43:29;3.85;;;1.77;;
23952;SDS011;12163;49.316;6.092;2023-05-10T06:45:56;4.95;;;1.65;;
23952;SDS011;12163;49.316;6.092;2023-05-10T06:48:23;6.93;;;1.55;;
23952;SDS011;12163;49.316;6.092;2023-05-10T06:50:49;7.78;;;1.88;;
23952;SDS011;12163;49.316;6.092;2023-05-10T06:53:25;4.67;;;1.60;;
23952;SDS011;12163;49.316;6.092;2023-05-10T06:55:52;6.43;;;1.58;;
23952;SDS011;12163;49.316;6.092;2023-05-10T06:58:18;4.07;;;1.50;;
23952;SDS011;12163;49.316;6.092;2023-05-10T07:00:45;5.85;;;1.58;;
23952;SDS011;12163;49.316;6.092;2023-05-10T07:03:13;3.38;;;1.40;;
23952;SDS011;12163;49.316;6.092;2023-05-10T07:05:39;5.93;;;1.50;;
23952;SDS011;12163;49.316;6.092;2023-05-10T07:08:06;7.60;;;1.60;;
23952;SDS011;12163;49.316;6.092;2023-05-10T07:10:33;8.68;;;1.48;;
23952;SDS011;12163;49.316;6.092;2023-05-10T07:13:00;5.82;;;1.60;;
23952;SDS011;12163;49.316;6.092;2023-05-10T07:15:27;5.70;;;1.55;;
23952;SDS011;12163;49.316;6.092;2023-05-10T07:17:54;10.68;;;2.00;;
23952;SDS011;12163;49.316;6.092;2023-05-10T07:20:21;7.15;;;1.45;;
23952;SDS011;12163;49.316;6.092;2023-05-10T07:22:48;4.43;;;1.63;;
23952;SDS011;12163;49.316;6.092;2023-05-10T07:25:15;10.40;;;1.92;;
23952;SDS011;12163;49.316;6.092;2023-05-10T07:27:42;8.05;;;2.10;;
23952;SDS011;12163;49.316;6.092;2023-05-10T07:30:08;6.03;;;1.33;;
23952;SDS011;12163;49.316;6.092;2023-05-10T07:32:35;11.27;;;1.77;;
23952;SDS011;12163;49.316;6.092;2023-05-10T07:35:02;9.95;;;2.40;;
23952;SDS011;12163;49.316;6.092;2023-05-10T07:37:29;5.15;;;1.33;;
23952;SDS011;12163;49.316;6.092;2023-05-10T07:39:56;10.95;;;1.70;;
23952;SDS011;12163;49.316;6.092;2023-05-10T07:42:22;7.40;;;1.70;;
23952;SDS011;12163;49.316;6.092;2023-05-10T07:44:49;7.80;;;1.60;;
23952;SDS011;12163;49.316;6.092;2023-05-10T07:47:16;10.77;;;1.80;;
23952;SDS011;12163;49.316;6.092;2023-05-10T07:49:42;8.35;;;1.77;;
23952;SDS011;12163;49.316;6.092;2023-05-10T07:52:09;8.63;;;1.65;;
23952;SDS011;12163;49.316;6.092;2023-05-10T07:54:36;7.43;;;1.55;;
23952;SDS011;12163;49.316;6.092;2023-05-10T07:57:03;5.32;;;1.55;;
23952;SDS011;12163;49.316;6.092;2023-05-10T07:59:30;8.77;;;1.90;;
23952;SDS011;12163;49.316;6.092;2023-05-10T08:01:56;8.95;;;2.03;;
23952;SDS011;12163;49.316;6.092;2023-05-10T08:04:23;9.45;;;1.88;;
23952;SDS011;12163;49.316;6.092;2023-05-10T08:06:50;9.07;;;1.70;;
23952;SDS011;12163;49.316;6.092;2023-05-10T08:09:16;8.82;;;1.60;;
23952;SDS011;12163;49.316;6.092;2023-05-10T08:11:43;7.70;;;1.58;;
23952;SDS011;12163;49.316;6.092;2023-05-10T08:14:10;3.53;;;1.20;;
23952;SDS011;12163;49.316;6.092;2023-05-10T08:16:37;8.40;;;1.73;;
23952;SDS011;12163;49.316;6.092;2023-05-10T08:19:03;11.32;;;1.60;;
23952;SDS011;12163;49.316;6.092;2023-05-10T08:21:31;6.18;;;1.58;;
23952;SDS011;12163;49.316;6.092;2023-05-10T08:23:58;4.97;;;1.63;;
23952;SDS011;12163;49.316;6.092;2023-05-10T08:26:24;8.20;;;1.70;;
23952;SDS011;12163;49.316;6.092;2023-05-10T08:28:52;5.95;;;1.50;;
23952;SDS011;12163;49.316;6.092;2023-05-10T08:31:18;7.05;;;1.25;;
23952;SDS011;12163;49.316;6.092;2023-05-10T08:33:45;4.47;;;1.30;;
23952;SDS011;12163;49.316;6.092;2023-05-10T08:36:12;11.23;;;1.50;;
23952;SDS011;12163;49.316;6.092;2023-05-10T08:38:40;8.93;;;1.50;;
23952;SDS011;12163;49.316;6.092;2023-05-10T08:41:07;9.52;;;1.98;;
23952;SDS011;12163;49.316;6.092;2023-05-10T08:43:33;5.25;;;1.38;;
23952;SDS011;12163;49.316;6.092;2023-05-10T08:46:02;6.70;;;1.20;;
23952;SDS011;12163;49.316;6.092;2023-05-10T08:48:31;6.80;;;1.40;;
23952;SDS011;12163;49.316;6.092;2023-05-10T08:51:00;9.07;;;1.30;;
23952;SDS011;12163;49.316;6.092;2023-05-10T08:53:29;8.02;;;1.30;;
23952;SDS011;12163;49.316;6.092;2023-05-10T08:55:59;6.03;;;1.30;;
23952;SDS011;12163;49.316;6.092;2023-05-10T08:58:27;8.18;;;1.60;;
23952;SDS011;12163;49.316;6.092;2023-05-10T09:00:54;8.07;;;1.30;;
23952;SDS011;12163;49.316;6.092;2023-05-10T09:03:22;7.97;;;1.48;;
23952;SDS011;12163;49.316;6.092;2023-05-10T09:05:48;4.93;;;1.20;;
23952;SDS011;12163;49.316;6.092;2023-05-10T09:08:15;8.52;;;1.73;;
23952;SDS011;12163;49.316;6.092;2023-05-10T09:10:45;9.15;;;1.55;;
23952;SDS011;12163;49.316;6.092;2023-05-10T09:13:13;7.60;;;1.50;;
23952;SDS011;12163;49.316;6.092;2023-05-10T09:15:42;5.00;;;1.60;;
23952;SDS011;12163;49.316;6.092;2023-05-10T09:18:11;7.45;;;1.70;;
23952;SDS011;12163;49.316;6.092;2023-05-10T09:20:37;6.40;;;1.42;;
23952;SDS011;12163;49.316;6.092;2023-05-10T09:23:04;5.43;;;1.38;;
23952;SDS011;12163;49.316;6.092;2023-05-10T09:25:31;4.82;;;1.52;;
23952;SDS011;12163;49.316;6.092;2023-05-10T09:28:01;2.17;;;1.05;;
23952;SDS011;12163;49.316;6.092;2023-05-10T09:30:29;6.78;;;1.30;;
23952;SDS011;12163;49.316;6.092;2023-05-10T09:32:57;7.38;;;1.33;;
23952;SDS011;12163;49.316;6.092;2023-05-10T09:35:26;4.78;;;1.30;;
23952;SDS011;12163;49.316;6.092;2023-05-10T09:37:56;8.57;;;1.27;;
23952;SDS011;12163;49.316;6.092;2023-05-10T09:40:24;3.90;;;0.95;;
23952;SDS011;12163;49.316;6.092;2023-05-10T09:45:33;3.85;;;1.10;;
23952;SDS011;12163;49.316;6.092;2023-05-10T09:48:04;6.67;;;1.00;;
23952;SDS011;12163;49.316;6.092;2023-05-10T09:50:31;6.75;;;1.00;;
23952;SDS011;12163;49.316;6.092;2023-05-10T09:52:58;4.45;;;0.90;;
23952;SDS011;12163;49.316;6.092;2023-05-10T09:55:48;4.40;;;1.10;;
23952;SDS011;12163;49.316;6.092;2023-05-10T09:58:15;4.05;;;1.23;;
23952;SDS011;12163;49.316;6.092;2023-05-10T10:00:43;2.80;;;0.70;;
23952;SDS011;12163;49.316;6.092;2023-05-10T10:03:14;6.38;;;1.33;;
23952;SDS011;12163;49.316;6.092;2023-05-10T10:05:45;6.45;;;1.17;;
23952;SDS011;12163;49.316;6.092;2023-05-10T10:08:15;4.70;;;0.90;;
23952;SDS011;12163;49.316;6.092;2023-05-10T10:10:42;8.45;;;1.00;;
23952;SDS011;12163;49.316;6.092;2023-05-10T10:13:12;9.18;;;1.13;;
23952;SDS011;12163;49.316;6.092;2023-05-10T10:15:40;2.75;;;0.82;;
23952;SDS011;12163;49.316;6.092;2023-05-10T10:18:12;8.30;;;1.00;;
23952;SDS011;12163;49.316;6.092;2023-05-10T10:20:39;1.52;;;0.90;;
23952;SDS011;12163;49.316;6.092;2023-05-10T10:23:07;5.20;;;1.10;;
23952;SDS011;12163;49.316;6.092;2023-05-10T10:25:34;3.85;;;0.82;;
23952;SDS011;12163;49.316;6.092;2023-05-10T10:30:53;2.25;;;1.00;;
23952;SDS011;12163;49.316;6.092;2023-05-10T10:33:36;2.00;;;0.75;;
23952;SDS011;12163;49.316;6.092;2023-05-10T10:36:14;3.78;;;0.85;;
23952;SDS011;12163;49.316;6.092;2023-05-10T10:41:27;2.15;;;0.82;;
23952;SDS011;12163;49.316;6.092;2023-05-10T10:49:52;4.60;;;1.15;;
23952;SDS011;12163;49.316;6.092;2023-05-10T10:55:10;3.97;;;0.88;;
23952;SDS011;12163;49.316;6.092;2023-05-10T10:57:55;5.18;;;0.85;;
23952;SDS011;12163;49.316;6.092;2023-05-10T11:00:35;3.95;;;0.80;;
23952;SDS011;12163;49.316;6.092;2023-05-10T11:03:12;4.13;;;0.95;;
23952;SDS011;12163;49.316;6.092;2023-05-10T11:05:44;2.08;;;0.90;;
23952;SDS011;12163;49.316;6.092;2023-05-10T11:08:27;2.00;;;0.80;;
23952;SDS011;12163;49.316;6.092;2023-05-10T11:16:09;5.20;;;1.00;;
23952;SDS011;12163;49.316;6.092;2023-05-10T11:18:37;3.47;;;0.90;;
23952;SDS011;12163;49.316;6.092;2023-05-10T11:21:04;3.40;;;0.80;;
23952;SDS011;12163;49.316;6.092;2023-05-10T11:26:14;3.67;;;0.98;;
23952;SDS011;12163;49.316;6.092;2023-05-10T11:28:41;4.00;;;1.10;;
23952;SDS011;12163;49.316;6.092;2023-05-10T11:31:10;2.53;;;0.77;;
23952;SDS011;12163;49.316;6.092;2023-05-10T11:33:48;1.60;;;0.70;;
23952;SDS011;12163;49.316;6.092;2023-05-10T11:36:20;4.68;;;0.80;;
23952;SDS011;12163;49.316;6.092;2023-05-10T11:38:52;3.90;;;0.80;;
23952;SDS011;12163;49.316;6.092;2023-05-10T11:41:19;2.15;;;0.70;;
23952;SDS011;12163;49.316;6.092;2023-05-10T11:43:50;3.55;;;0.50;;
23952;SDS011;12163;49.316;6.092;2023-05-10T11:46:18;2.67;;;0.60;;
23952;SDS011;12163;49.316;6.092;2023-05-10T11:48:51;1.73;;;0.60;;
23952;SDS011;12163;49.316;6.092;2023-05-10T11:51:20;4.28;;;0.88;;
23952;SDS011;12163;49.316;6.092;2023-05-10T11:53:48;1.80;;;0.80;;
23952;SDS011;12163;49.316;6.092;2023-05-10T11:56:19;2.67;;;0.77;;
23952;SDS011;12163;49.316;6.092;2023-05-10T11:58:54;2.55;;;0.65;;
23952;SDS011;12163;49.316;6.092;2023-05-10T12:01:22;2.13;;;0.70;;
23952;SDS011;12163;49.316;6.092;2023-05-10T12:03:50;2.72;;;0.88;;
23952;SDS011;12163;49.316;6.092;2023-05-10T12:06:19;5.15;;;0.98;;
23952;SDS011;12163;49.316;6.092;2023-05-10T12:08:47;5.00;;;1.00;;
23952;SDS011;12163;49.316;6.092;2023-05-10T12:11:19;4.47;;;0.77;;
23952;SDS011;12163;49.316;6.092;2023-05-10T12:13:48;1.67;;;0.73;;
23952;SDS011;12163;49.316;6.092;2023-05-10T12:16:16;4.68;;;0.80;;
23952;SDS011;12163;49.316;6.092;2023-05-10T12:18:48;4.13;;;0.75;;
23952;SDS011;12163;49.316;6.092;2023-05-10T12:21:17;5.65;;;0.90;;
23952;SDS011;12163;49.316;6.092;2023-05-10T12:23:46;3.20;;;0.90;;
23952;SDS011;12163;49.316;6.092;2023-05-10T12:26:14;2.25;;;0.60;;
23952;SDS011;12163;49.316;6.092;2023-05-10T12:28:41;2.95;;;0.85;;
23952;SDS011;12163;49.316;6.092;2023-05-10T12:31:08;5.20;;;1.13;;
23952;SDS011;12163;49.316;6.092;2023-05-10T12:33:38;2.67;;;0.70;;
23952;SDS011;12163;49.316;6.092;2023-05-10T12:36:08;3.72;;;0.70;;
23952;SDS011;12163;49.316;6.092;2023-05-10T12:38:36;5.10;;;0.90;;
23952;SDS011;12163;49.316;6.092;2023-05-10T12:41:11;3.17;;;0.80;;
23952;SDS011;12163;49.316;6.092;2023-05-10T12:43:39;1.95;;;0.90;;
23952;SDS011;12163;49.316;6.092;2023-05-10T12:48:33;2.05;;;0.70;;
23952;SDS011;12163;49.316;6.092;2023-05-10T12:51:01;2.25;;;1.10;;
23952;SDS011;12163;49.316;6.092;2023-05-10T12:53:28;2.05;;;0.60;;
23952;SDS011;12163;49.316;6.092;2023-05-10T12:55:54;7.13;;;0.82;;
23952;SDS011;12163;49.316;6.092;2023-05-10T12:58:21;4.20;;;0.88;;
23952;SDS011;12163;49.316;6.092;2023-05-10T13:01:00;2.55;;;0.95;;
23952;SDS011;12163;49.316;6.092;2023-05-10T13:03:27;3.53;;;0.52;;
23952;SDS011;12163;49.316;6.092;2023-05-10T13:05:54;2.25;;;1.00;;
23952;SDS011;12163;49.316;6.092;2023-05-10T13:08:20;3.10;;;1.00;;
23952;SDS011;12163;49.316;6.092;2023-05-10T13:10:47;5.63;;;0.75;;
23952;SDS011;12163;49.316;6.092;2023-05-10T13:13:14;3.20;;;1.10;;
23952;SDS011;12163;49.316;6.092;2023-05-10T13:15:41;1.98;;;0.85;;
23952;SDS011;12163;49.316;6.092;2023-05-10T13:18:08;6.20;;;0.90;;
23952;SDS011;12163;49.316;6.092;2023-05-10T13:20:34;3.20;;;1.05;;
23952;SDS011;12163;49.316;6.092;2023-05-10T13:23:01;1.83;;;0.70;;
23952;SDS011;12163;49.316;6.092;2023-05-10T13:25:28;1.33;;;0.70;;
23952;SDS011;12163;49.316;6.092;2023-05-10T13:27:55;3.63;;;1.08;;
23952;SDS011;12163;49.316;6.092;2023-05-10T13:30:21;2.42;;;0.77;;
23952;SDS011;12163;49.316;6.092;2023-05-10T13:32:49;2.85;;;1.05;;
23952;SDS011;12163;49.316;6.092;2023-05-10T13:35:16;2.38;;;0.80;;
23952;SDS011;12163;49.316;6.092;2023-05-10T13:37:43;4.82;;;0.90;;
23952;SDS011;12163;49.316;6.092;2023-05-10T13:40:10;4.20;;;0.82;;
23952;SDS011;12163;49.316;6.092;2023-05-10T13:42:36;2.17;;;0.65;;
23952;SDS011;12163;49.316;6.092;2023-05-10T13:45:03;3.25;;;0.52;;
23952;SDS011;12163;49.316;6.092;2023-05-10T13:47:30;3.50;;;0.70;;
23952;SDS011;12163;49.316;6.092;2023-05-10T13:49:57;2.60;;;0.73;;
23952;SDS011;12163;49.316;6.092;2023-05-10T13:52:24;1.27;;;0.90;;
23952;SDS011;12163;49.316;6.092;2023-05-10T13:54:51;9.25;;;0.82;;
23952;SDS011;12163;49.316;6.092;2023-05-10T13:57:18;3.72;;;0.80;;
23952;SDS011;12163;49.316;6.092;2023-05-10T13:59:44;1.05;;;0.57;;
23952;SDS011;12163;49.316;6.092;2023-05-10T14:02:11;2.72;;;0.63;;
23952;SDS011;12163;49.316;6.092;2023-05-10T14:04:39;3.55;;;0.63;;
23952;SDS011;12163;49.316;6.092;2023-05-10T14:07:05;2.83;;;0.70;;
23952;SDS011;12163;49.316;6.092;2023-05-10T14:09:32;1.00;;;0.45;;
23952;SDS011;12163;49.316;6.092;2023-05-10T14:11:59;1.45;;;0.50;;
23952;SDS011;12163;49.316;6.092;2023-05-10T14:14:25;0.73;;;0.40;;
23952;SDS011;12163;49.316;6.092;2023-05-10T14:16:52;4.95;;;0.55;;
23952;SDS011;12163;49.316;6.092;2023-05-10T14:19:18;0.43;;;0.40;;
23952;SDS011;12163;49.316;6.092;2023-05-10T14:21:45;1.50;;;0.55;;
23952;SDS011;12163;49.316;6.092;2023-05-10T14:24:11;0.63;;;0.40;;
23952;SDS011;12163;49.316;6.092;2023-05-10T14:26:38;1.38;;;0.57;;
23952;SDS011;12163;49.316;6.092;2023-05-10T14:29:04;3.35;;;0.43;;
23952;SDS011;12163;49.316;6.092;2023-05-10T14:31:31;3.47;;;0.75;;
23952;SDS011;12163;49.316;6.092;2023-05-10T14:33:58;1.85;;;0.47;;
23952;SDS011;12163;49.316;6.092;2023-05-10T14:36:25;2.75;;;0.60;;
23952;SDS011;12163;49.316;6.092;2023-05-10T14:38:52;1.27;;;0.47;;
23952;SDS011;12163;49.316;6.092;2023-05-10T14:41:18;0.85;;;0.55;;
23952;SDS011;12163;49.316;6.092;2023-05-10T14:43:45;1.27;;;0.70;;
23952;SDS011;12163;49.316;6.092;2023-05-10T14:46:12;1.45;;;0.60;;
23952;SDS011;12163;49.316;6.092;2023-05-10T14:48:38;7.13;;;0.70;;
23952;SDS011;12163;49.316;6.092;2023-05-10T14:51:05;2.13;;;0.60;;
23952;SDS011;12163;49.316;6.092;2023-05-10T14:53:32;1.17;;;0.50;;
23952;SDS011;12163;49.316;6.092;2023-05-10T14:55:59;2.75;;;0.50;;
23952;SDS011;12163;49.316;6.092;2023-05-10T14:58:27;0.98;;;0.40;;
23952;SDS011;12163;49.316;6.092;2023-05-10T15:00:54;2.75;;;0.60;;
23952;SDS011;12163;49.316;6.092;2023-05-10T15:03:20;1.42;;;0.63;;
23952;SDS011;12163;49.316;6.092;2023-05-10T15:05:47;1.35;;;0.45;;
23952;SDS011;12163;49.316;6.092;2023-05-10T15:10:40;1.30;;;0.40;;
23952;SDS011;12163;49.316;6.092;2023-05-10T15:13:07;3.58;;;0.60;;
23952;SDS011;12163;49.316;6.092;2023-05-10T15:15:34;1.30;;;0.50;;
23952;SDS011;12163;49.316;6.092;2023-05-10T15:18:00;3.90;;;1.45;;
23952;SDS011;12163;49.316;6.092;2023-05-10T15:20:27;2.28;;;0.77;;
23952;SDS011;12163;49.316;6.092;2023-05-10T15:22:54;3.10;;;0.75;;
23952;SDS011;12163;49.316;6.092;2023-05-10T15:25:20;6.00;;;0.70;;
23952;SDS011;12163;49.316;6.092;2023-05-10T15:27:47;0.93;;;0.47;;
23952;SDS011;12163;49.316;6.092;2023-05-10T15:30:13;3.03;;;0.55;;
23952;SDS011;12163;49.316;6.092;2023-05-10T15:32:40;1.63;;;0.40;;
23952;SDS011;12163;49.316;6.092;2023-05-10T15:35:07;1.27;;;0.52;;